createdAt,value
2018-03-21T00:00:07.334Z,52.5
2018-03-21T00:01:08.985Z,52.6
2018-03-21T00:02:10.618Z,51.6
2018-03-21T00:03:12.268Z,51.7
2018-03-21T00:04:13.923Z,51.4
2018-03-21T00:05:15.566Z,52.2
2018-03-21T00:06:17.216Z,52.2
2018-03-21T00:07:18.857Z,52.9
2018-03-21T00:08:20.499Z,54.4
2018-03-21T00:09:22.137Z,55.9
2018-03-21T00:10:23.779Z,57.3
2018-03-21T00:11:25.419Z,58.3
2018-03-21T00:12:27.069Z,57.2
2018-03-21T00:13:28.720Z,58.1
2018-03-21T00:14:30.365Z,59.5
2018-03-21T00:15:31.996Z,59.0
2018-03-21T00:16:33.702Z,58.0
2018-03-21T00:17:35.311Z,57.4
2018-03-21T00:18:36.960Z,58.9
2018-03-21T00:19:38.609Z,59.1
2018-03-21T00:20:40.256Z,58.6
2018-03-21T00:21:41.883Z,58.2
2018-03-21T00:22:43.542Z,58.8
2018-03-21T00:23:45.184Z,60.7
2018-03-21T00:24:46.826Z,61.2
2018-03-21T00:25:48.480Z,61.4
2018-03-21T00:26:50.138Z,61.7
2018-03-21T00:27:51.784Z,61.4
2018-03-21T00:28:53.425Z,61.6
2018-03-21T00:29:55.064Z,59.7
2018-03-21T00:30:56.711Z,56.4
2018-03-21T00:31:58.359Z,56.6
2018-03-21T00:33:00.079Z,54.3
2018-03-21T00:34:01.732Z,52.7
2018-03-21T00:35:03.372Z,49.6
2018-03-21T00:36:05.007Z,48.3
2018-03-21T00:37:06.665Z,48.9
2018-03-21T00:38:08.309Z,49.4
2018-03-21T00:39:09.950Z,50.8
2018-03-21T00:40:11.598Z,52.9
2018-03-21T00:41:13.252Z,55.1
2018-03-21T00:42:14.899Z,56.4
2018-03-21T00:43:16.538Z,56.8
2018-03-21T00:44:18.187Z,58.3
2018-03-21T00:45:19.854Z,55.9
2018-03-21T00:46:21.498Z,56.8
2018-03-21T00:47:23.139Z,56.9
2018-03-21T00:48:24.823Z,58.0
2018-03-21T00:49:26.478Z,57.2
2018-03-21T00:50:28.130Z,54.2
2018-03-21T00:51:29.774Z,53.9
2018-03-21T00:52:31.421Z,52.3
2018-03-21T00:53:33.075Z,48.5
2018-03-21T00:54:34.696Z,48.5
2018-03-21T00:55:36.353Z,49.2
2018-03-21T00:56:37.994Z,48.9
2018-03-21T00:57:39.643Z,48.7
2018-03-21T00:58:41.284Z,50.5
2018-03-21T00:59:42.920Z,51.7
2018-03-21T01:00:44.562Z,53.1
2018-03-21T01:01:46.203Z,53.8
2018-03-21T01:02:47.850Z,53.8
2018-03-21T01:03:49.495Z,53.8
2018-03-21T01:04:51.147Z,54.6
2018-03-21T01:05:52.788Z,51.8
2018-03-21T01:06:54.431Z,51.4
2018-03-21T01:07:56.068Z,53.1
2018-03-21T01:08:57.716Z,53.5
2018-03-21T01:09:59.359Z,52.2
2018-03-21T01:11:01.010Z,51.8
2018-03-21T01:12:02.654Z,50.9
2018-03-21T01:13:04.301Z,50.9
2018-03-21T01:14:05.943Z,51.6
2018-03-21T01:15:07.594Z,48.0
2018-03-21T01:16:09.241Z,49.1
2018-03-21T01:17:10.921Z,50.5
2018-03-21T01:18:12.567Z,51.0
2018-03-21T01:19:14.198Z,51.3
2018-03-21T01:20:15.841Z,51.8
2018-03-21T01:21:17.485Z,53.1
2018-03-21T01:22:19.132Z,53.6
2018-03-21T01:23:20.780Z,54.6
2018-03-21T01:24:22.418Z,52.0
2018-03-21T01:25:24.063Z,52.9
2018-03-21T01:26:25.718Z,54.1
2018-03-21T01:27:27.352Z,54.2
2018-03-21T01:28:28.994Z,55.3
2018-03-21T01:29:30.648Z,54.3
2018-03-21T01:30:32.282Z,54.7
2018-03-21T01:31:33.926Z,54.9
2018-03-21T01:32:35.577Z,55.9
2018-03-21T01:33:37.212Z,56.6
2018-03-21T01:34:38.855Z,57.1
2018-03-21T01:35:40.491Z,57.8
2018-03-21T01:36:42.132Z,57.7
2018-03-21T01:37:43.770Z,58.6
2018-03-21T01:38:45.409Z,58.8
2018-03-21T01:39:47.068Z,57.8
2018-03-21T01:40:48.709Z,59.5
2018-03-21T01:41:50.346Z,60.6
2018-03-21T01:42:51.993Z,61.1
2018-03-21T01:43:53.638Z,59.7
2018-03-21T01:44:55.294Z,61.1
2018-03-21T01:45:56.935Z,58.9
2018-03-21T01:46:58.583Z,59.3
2018-03-21T01:48:00.225Z,55.2
2018-03-21T01:49:01.866Z,52.6
2018-03-21T01:50:03.511Z,49.1
2018-03-21T01:51:05.151Z,49.0
2018-03-21T01:52:06.788Z,50.5
2018-03-21T01:53:08.431Z,50.0
2018-03-21T01:54:10.083Z,49.8
2018-03-21T01:55:11.751Z,50.8
2018-03-21T01:56:13.371Z,46.8
2018-03-21T01:57:15.025Z,44.3
2018-03-21T01:58:16.741Z,42.8
2018-03-21T01:59:18.396Z,43.4
2018-03-21T02:00:20.040Z,43.9
2018-03-21T02:01:21.687Z,43.6
2018-03-21T02:02:23.335Z,45.4
2018-03-21T02:03:24.977Z,45.1
2018-03-21T02:04:26.616Z,45.7
2018-03-21T02:05:28.257Z,45.3
2018-03-21T02:06:29.897Z,48.4
2018-03-21T02:07:31.542Z,51.0
2018-03-21T02:08:33.192Z,53.0
2018-03-21T02:09:34.833Z,54.2
2018-03-21T02:10:37.029Z,55.6
2018-03-21T02:11:38.679Z,56.2
2018-03-21T02:12:40.336Z,56.0
2018-03-21T02:13:41.983Z,50.9
2018-03-21T02:14:43.631Z,49.4
2018-03-21T02:15:45.272Z,46.3
2018-03-21T02:16:46.916Z,44.5
2018-03-21T02:17:48.610Z,45.2
2018-03-21T02:18:50.262Z,46.1
2018-03-21T02:19:51.904Z,47.0
2018-03-21T02:20:53.553Z,48.3
2018-03-21T02:21:55.201Z,51.3
2018-03-21T02:22:56.848Z,53.2
2018-03-21T02:23:58.489Z,54.6
2018-03-21T02:25:00.134Z,56.1
2018-03-21T02:26:01.861Z,58.4
2018-03-21T02:27:03.488Z,55.0
2018-03-21T02:28:05.134Z,51.8
2018-03-21T02:29:06.834Z,50.0
2018-03-21T02:30:08.479Z,49.1
2018-03-21T02:31:10.130Z,51.0
2018-03-21T02:32:11.771Z,52.4
2018-03-21T02:33:13.413Z,54.0
2018-03-21T02:34:15.051Z,54.4
2018-03-21T02:35:16.691Z,54.4
2018-03-21T02:36:18.347Z,55.4
2018-03-21T02:37:19.988Z,51.3
2018-03-21T02:38:21.631Z,50.0
2018-03-21T02:39:23.275Z,51.3
2018-03-21T02:40:24.906Z,51.8
2018-03-21T02:41:26.569Z,51.0
2018-03-21T02:42:28.188Z,51.0
2018-03-21T02:43:29.843Z,51.0
2018-03-21T02:44:31.483Z,47.5
2018-03-21T02:45:33.132Z,48.7
2018-03-21T02:46:34.774Z,49.2
2018-03-21T02:47:36.415Z,51.4
2018-03-21T02:48:38.060Z,52.4
2018-03-21T02:49:39.702Z,53.1
2018-03-21T02:50:41.342Z,53.9
2018-03-21T02:51:42.988Z,50.7
2018-03-21T02:52:44.630Z,50.8
2018-03-21T02:53:46.275Z,50.1
2018-03-21T02:54:47.919Z,51.1
2018-03-21T03:01:07.743Z,40.6
2018-03-21T03:02:09.377Z,42.4
2018-03-21T03:04:01.202Z,45.0
2018-03-21T03:05:02.853Z,47.9
2018-03-21T03:06:04.493Z,50.9
2018-03-21T03:07:06.170Z,53.1
2018-03-21T03:08:07.812Z,54.3
2018-03-21T03:09:09.463Z,52.7
2018-03-21T03:10:11.106Z,49.2
2018-03-21T03:11:12.751Z,46.2
2018-03-21T03:12:14.397Z,47.1
2018-03-21T03:13:16.036Z,46.9
2018-03-21T03:14:17.689Z,48.5
2018-03-21T03:15:19.337Z,48.6
2018-03-21T03:16:20.983Z,49.6
2018-03-21T03:17:22.622Z,54.1
2018-03-21T03:18:24.274Z,55.9
2018-03-21T03:19:25.917Z,58.1
2018-03-21T03:20:27.563Z,59.6
2018-03-21T03:21:29.188Z,60.7
2018-03-21T03:22:30.832Z,62.9
2018-03-21T03:23:32.478Z,65.0
2018-03-21T03:24:34.114Z,65.2
2018-03-21T03:25:35.756Z,65.4
2018-03-21T03:26:37.409Z,64.4
2018-03-21T03:27:39.049Z,65.3
2018-03-21T03:28:40.696Z,65.5
2018-03-21T03:29:42.358Z,66.6
2018-03-21T03:30:43.987Z,67.7
2018-03-21T03:31:45.636Z,66.7
2018-03-21T03:32:47.282Z,64.7
2018-03-21T03:33:48.925Z,64.5
2018-03-21T03:34:50.577Z,62.8
2018-03-21T03:35:52.216Z,62.8
2018-03-21T03:36:53.853Z,59.8
2018-03-21T03:37:55.500Z,56.7
2018-03-21T03:38:57.300Z,59.3
2018-03-21T03:39:58.945Z,62.7
2018-03-21T03:41:00.579Z,59.5
2018-03-21T03:42:02.224Z,59.2
2018-03-21T03:43:03.870Z,60.1
2018-03-21T03:44:05.514Z,54.7
2018-03-21T03:45:07.160Z,56.1
2018-03-21T03:46:08.798Z,57.0
2018-03-21T03:47:10.472Z,56.5
2018-03-21T03:48:12.105Z,56.2
2018-03-21T03:49:13.755Z,53.9
2018-03-21T03:50:15.392Z,50.0
2018-03-21T03:51:17.032Z,47.1
2018-03-21T03:52:18.666Z,48.6
2018-03-21T03:53:20.326Z,49.6
2018-03-21T03:54:21.973Z,48.2
2018-03-21T03:55:23.613Z,47.2
2018-03-21T03:56:25.268Z,47.5
2018-03-21T03:57:26.903Z,47.4
2018-03-21T03:58:28.551Z,49.9
2018-03-21T03:59:30.202Z,51.2
2018-03-21T04:00:31.845Z,50.5
2018-03-21T04:01:33.485Z,50.0
2018-03-21T04:02:35.136Z,47.0
2018-03-21T04:03:36.787Z,46.7
2018-03-21T04:04:38.424Z,44.7
2018-03-21T04:05:40.076Z,45.9
2018-03-21T04:06:41.705Z,47.1
2018-03-21T04:07:43.350Z,47.6
2018-03-21T04:08:45.001Z,50.3
2018-03-21T04:09:46.643Z,49.2
2018-03-21T04:10:48.289Z,49.4
2018-03-21T04:11:49.941Z,49.4
2018-03-21T04:12:51.575Z,49.5
2018-03-21T04:13:53.223Z,49.4
2018-03-21T04:14:54.878Z,52.6
2018-03-21T04:15:56.515Z,52.2
2018-03-21T04:16:58.160Z,53.1
2018-03-21T04:17:59.819Z,54.0
2018-03-21T04:19:01.453Z,53.7
2018-03-21T04:20:03.101Z,51.8
2018-03-21T04:21:04.742Z,49.4
2018-03-21T04:22:06.386Z,49.7
2018-03-21T04:23:08.031Z,49.5
2018-03-21T04:24:09.673Z,51.2
2018-03-21T04:25:11.320Z,51.9
2018-03-21T04:26:12.956Z,53.0
2018-03-21T04:27:14.793Z,55.6
2018-03-21T04:28:16.430Z,54.5
2018-03-21T04:29:18.072Z,56.5
2018-03-21T04:30:19.710Z,58.0
2018-03-21T04:31:21.350Z,57.8
2018-03-21T04:32:22.984Z,55.2
2018-03-21T04:33:24.631Z,53.8
2018-03-21T04:34:26.273Z,51.3
2018-03-21T04:35:27.912Z,50.9
2018-03-21T04:36:29.561Z,51.1
2018-03-21T04:37:31.202Z,52.9
2018-03-21T04:38:32.857Z,52.7
2018-03-21T04:39:34.501Z,55.1
2018-03-21T04:40:36.138Z,57.0
2018-03-21T04:41:37.790Z,58.5
2018-03-21T04:42:39.419Z,58.7
2018-03-21T04:43:41.065Z,58.9
2018-03-21T04:44:42.710Z,57.8
2018-03-21T04:45:44.356Z,55.9
2018-03-21T04:46:46.003Z,54.1
2018-03-21T04:47:47.640Z,54.8
2018-03-21T04:48:49.289Z,52.7
2018-03-21T04:49:50.937Z,51.1
2018-03-21T04:50:52.619Z,50.6
2018-03-21T04:51:54.266Z,52.9
2018-03-21T04:52:55.910Z,52.7
2018-03-21T04:53:57.557Z,52.5
2018-03-21T04:54:59.199Z,54.6
2018-03-21T04:56:00.841Z,57.0
2018-03-21T04:57:02.486Z,55.0
2018-03-21T04:58:04.157Z,56.5
2018-03-21T04:59:05.803Z,57.1
2018-03-21T05:00:07.440Z,59.0
2018-03-21T05:01:09.079Z,58.1
2018-03-21T05:02:10.719Z,60.2
2018-03-21T05:03:12.353Z,60.0
2018-03-21T05:04:14.003Z,60.2
2018-03-21T05:05:15.652Z,60.6
2018-03-21T05:06:17.308Z,58.6
2018-03-21T05:07:18.940Z,60.6
2018-03-21T05:08:20.634Z,58.9
2018-03-21T05:09:22.229Z,60.4
2018-03-21T05:10:23.945Z,61.1
2018-03-21T05:11:25.589Z,56.5
2018-03-21T05:12:27.250Z,54.8
2018-03-21T05:13:28.899Z,54.2
2018-03-21T05:14:30.549Z,53.4
2018-03-21T05:15:32.537Z,54.7
2018-03-21T05:16:34.173Z,57.1
2018-03-21T05:17:35.834Z,56.8
2018-03-21T05:18:37.475Z,57.6
2018-03-21T05:19:39.121Z,61.2
2018-03-21T05:20:40.776Z,60.6
2018-03-21T05:21:42.415Z,61.6
2018-03-21T05:22:44.059Z,62.2
2018-03-21T05:23:45.708Z,57.6
2018-03-21T05:24:47.350Z,54.8
2018-03-21T05:25:49.019Z,56.2
2018-03-21T05:26:50.663Z,58.8
2018-03-21T05:27:52.323Z,59.3
2018-03-21T05:28:53.975Z,59.5
2018-03-21T05:29:55.611Z,61.6
2018-03-21T05:30:57.256Z,59.7
2018-03-21T05:31:58.900Z,61.0
2018-03-21T05:33:00.574Z,63.0
2018-03-21T05:34:02.238Z,63.9
2018-03-21T05:35:03.886Z,63.4
2018-03-21T05:36:05.537Z,62.4
2018-03-21T05:37:07.180Z,63.6
2018-03-21T05:38:08.823Z,62.8
2018-03-21T05:39:10.473Z,61.1
2018-03-21T05:40:12.127Z,58.5
2018-03-21T05:41:13.773Z,59.2
2018-03-21T05:42:15.412Z,58.7
2018-03-21T05:43:17.073Z,55.8
2018-03-21T05:44:18.761Z,54.8
2018-03-21T05:45:20.402Z,57.6
2018-03-21T05:46:22.053Z,60.3
2018-03-21T05:47:23.699Z,58.9
2018-03-21T05:48:25.359Z,60.5
2018-03-21T05:49:27.010Z,61.3
2018-03-21T05:50:28.679Z,62.0
2018-03-21T05:51:30.330Z,61.5
2018-03-21T05:52:32.067Z,62.7
2018-03-21T05:53:33.717Z,63.1
2018-03-21T05:54:35.362Z,61.7
2018-03-21T05:55:37.005Z,61.0
2018-03-21T05:56:38.657Z,59.8
2018-03-21T05:57:40.298Z,62.2
2018-03-21T05:58:41.942Z,64.0
2018-03-21T05:59:43.591Z,63.4
2018-03-21T06:00:45.244Z,63.3
2018-03-21T06:01:46.893Z,63.7
2018-03-21T06:02:48.540Z,59.6
2018-03-21T06:03:50.207Z,60.5
2018-03-21T06:04:51.856Z,63.0
2018-03-21T06:05:53.518Z,62.9
2018-03-21T06:06:55.164Z,63.0
2018-03-21T06:07:56.810Z,64.7
2018-03-21T06:08:58.454Z,65.8
2018-03-21T06:10:00.109Z,65.2
2018-03-21T06:11:01.792Z,61.4
2018-03-21T06:12:03.415Z,62.4
2018-03-21T06:13:05.084Z,60.9
2018-03-21T06:14:06.734Z,61.6
2018-03-21T06:15:08.375Z,62.5
2018-03-21T06:16:10.025Z,62.0
2018-03-21T06:17:11.728Z,61.4
2018-03-21T06:18:13.394Z,61.5
2018-03-21T06:19:15.036Z,63.3
2018-03-21T06:20:16.684Z,63.3
2018-03-21T06:21:18.413Z,60.0
2018-03-21T06:22:20.075Z,60.3
2018-03-21T06:23:21.751Z,62.7
2018-03-21T06:24:23.406Z,60.8
2018-03-21T06:25:25.069Z,61.2
2018-03-21T06:26:26.709Z,62.6
2018-03-21T06:27:28.359Z,62.0
2018-03-21T06:28:29.998Z,62.2
2018-03-21T06:29:31.701Z,61.1
2018-03-21T06:30:33.349Z,62.2
2018-03-21T06:31:34.993Z,62.9
2018-03-21T06:32:36.664Z,64.8
2018-03-21T06:33:38.351Z,64.9
2018-03-21T06:34:40.855Z,63.2
2018-03-21T06:35:42.506Z,62.2
2018-03-21T06:36:44.162Z,58.9
2018-03-21T06:37:45.819Z,70.6
2018-03-21T06:38:47.467Z,78.1
2018-03-21T06:39:49.119Z,75.2
2018-03-21T06:40:50.756Z,77.3
2018-03-21T06:41:52.406Z,82.5
2018-03-21T06:42:54.068Z,77.7
2018-03-21T06:43:55.725Z,77.3
2018-03-21T06:44:57.410Z,72.2
2018-03-21T06:45:59.068Z,76.7
2018-03-21T06:47:00.722Z,84.6
2018-03-21T06:48:02.430Z,84.1
2018-03-21T06:49:04.671Z,78.2
2018-03-21T06:50:06.366Z,74.2
2018-03-21T06:51:07.963Z,85.3
2018-03-21T06:52:09.618Z,97.1
2018-03-21T07:01:57.602Z,100.0
2018-03-21T07:02:59.294Z,100.0
2018-03-21T07:04:00.927Z,98.2
2018-03-21T07:05:02.588Z,100.0
2018-03-21T07:06:04.237Z,100.0
2018-03-21T07:07:05.894Z,100.0
2018-03-21T07:08:07.558Z,100.0
2018-03-21T07:09:09.214Z,100.0
2018-03-21T07:10:10.882Z,100.0
2018-03-21T07:11:12.534Z,100.0
2018-03-21T07:12:14.190Z,100.0
2018-03-21T07:13:15.850Z,100.0
2018-03-21T07:14:17.515Z,100.0
2018-03-21T07:15:19.173Z,100.0
2018-03-21T07:16:20.834Z,100.0
2018-03-21T07:17:22.490Z,100.0
2018-03-21T07:18:24.148Z,100.0
2018-03-21T07:19:25.794Z,100.0
2018-03-21T07:20:27.445Z,100.0
2018-03-21T07:21:29.102Z,100.0
2018-03-21T07:22:30.758Z,100.0
2018-03-21T07:23:32.415Z,100.0
2018-03-21T07:24:34.063Z,100.0
2018-03-21T07:25:35.728Z,100.0
2018-03-21T07:26:37.387Z,100.0
2018-03-21T07:27:39.040Z,100.0
2018-03-21T07:28:40.743Z,100.0
2018-03-21T07:29:42.412Z,100.0
2018-03-21T07:30:44.068Z,100.0
2018-03-21T07:31:45.718Z,90.4
2018-03-21T07:32:47.377Z,100.0
2018-03-21T07:33:49.033Z,99.9
2018-03-21T07:34:50.695Z,100.0
2018-03-21T07:35:52.350Z,100.0
2018-03-21T07:36:54.011Z,100.0
2018-03-21T07:37:55.685Z,100.0
2018-03-21T07:38:57.348Z,98.8
2018-03-21T07:39:59.004Z,98.5
2018-03-21T07:41:00.670Z,95.3
2018-03-21T07:42:02.334Z,100.0
2018-03-21T07:43:03.989Z,99.4
2018-03-21T07:44:05.655Z,84.8
2018-03-21T07:45:07.344Z,78.0
2018-03-21T07:46:09.031Z,83.1
2018-03-21T07:47:10.700Z,88.2
2018-03-21T07:48:12.435Z,82.0
2018-03-21T07:49:14.086Z,85.4
2018-03-21T07:50:15.742Z,99.3
2018-03-21T07:51:17.405Z,100.0
2018-03-21T07:52:19.075Z,97.1
2018-03-21T07:53:20.737Z,86.6
2018-03-21T07:54:22.413Z,88.2
2018-03-21T07:55:24.067Z,91.5
2018-03-21T07:56:25.733Z,80.0
2018-03-21T07:57:27.393Z,85.1
2018-03-21T07:58:29.051Z,86.7
2018-03-21T07:59:30.709Z,93.1
2018-03-21T08:00:32.373Z,93.6
2018-03-21T08:01:34.038Z,90.7
2018-03-21T08:02:35.703Z,76.3
2018-03-21T08:03:37.375Z,71.7
2018-03-21T08:04:39.040Z,70.2
2018-03-21T08:05:40.700Z,69.3
2018-03-21T08:06:42.372Z,70.3
2018-03-21T08:07:44.027Z,68.5
2018-03-21T08:08:45.686Z,70.9
2018-03-21T08:09:47.354Z,65.7
2018-03-21T08:10:49.009Z,64.3
2018-03-21T08:11:50.674Z,61.5
2018-03-21T08:12:52.338Z,59.0
2018-03-21T08:13:54.023Z,58.1
2018-03-21T08:14:55.696Z,55.0
2018-03-21T08:15:57.374Z,54.9
2018-03-21T08:16:59.045Z,53.4
2018-03-21T08:18:00.730Z,52.5
2018-03-21T08:19:02.417Z,50.8
2018-03-21T08:20:04.058Z,49.8
2018-03-21T08:21:05.721Z,49.1
2018-03-21T08:22:07.430Z,49.2
2018-03-21T08:23:09.088Z,51.1
2018-03-21T08:24:10.753Z,53.5
2018-03-21T08:25:12.411Z,54.1
2018-03-21T08:26:14.073Z,52.8
2018-03-21T08:27:15.746Z,52.5
2018-03-21T08:28:17.413Z,55.5
2018-03-21T08:29:19.173Z,58.2
2018-03-21T08:30:20.832Z,59.4
2018-03-21T08:31:22.500Z,58.6
2018-03-21T08:32:24.253Z,56.4
2018-03-21T08:33:25.915Z,56.3
2018-03-21T08:34:27.648Z,55.4
2018-03-21T08:35:29.292Z,52.7
2018-03-21T08:36:30.953Z,51.1
2018-03-21T08:37:32.614Z,50.6
2018-03-21T08:38:34.290Z,51.5
2018-03-21T08:39:36.003Z,50.4
2018-03-21T08:40:37.649Z,49.2
2018-03-21T08:41:39.307Z,49.2
2018-03-21T08:42:41.126Z,48.6
2018-03-21T08:43:42.797Z,46.2
2018-03-21T08:44:44.442Z,45.3
2018-03-21T08:45:46.112Z,44.2
2018-03-21T08:46:47.776Z,43.8
2018-03-21T08:47:49.471Z,44.5
2018-03-21T08:48:51.134Z,48.4
2018-03-21T08:49:52.800Z,50.2
2018-03-21T08:50:54.460Z,50.3
2018-03-21T08:51:56.130Z,50.4
2018-03-21T08:52:57.789Z,50.4
2018-03-21T08:53:59.445Z,48.3
2018-03-21T08:55:01.110Z,45.5
2018-03-21T08:56:02.781Z,45.3
2018-03-21T08:57:04.446Z,45.9
2018-03-21T08:58:06.102Z,47.8
2018-03-21T08:59:07.775Z,49.1
2018-03-21T09:00:09.448Z,48.1
2018-03-21T09:01:11.111Z,46.3
2018-03-21T09:02:12.782Z,43.3
2018-03-21T09:03:14.450Z,41.2
2018-03-21T09:04:16.190Z,41.8
2018-03-21T09:05:17.844Z,44.3
2018-03-21T09:06:19.521Z,42.4
2018-03-21T09:07:21.181Z,39.6
2018-03-21T09:08:22.854Z,40.4
2018-03-21T09:09:24.527Z,43.1
2018-03-21T09:10:26.252Z,44.8
2018-03-21T09:11:27.920Z,43.1
2018-03-21T09:12:29.649Z,43.1
2018-03-21T09:13:31.318Z,40.9
2018-03-21T09:14:32.984Z,39.4
2018-03-21T09:15:34.645Z,38.2
2018-03-21T09:16:36.312Z,38.0
2018-03-21T09:17:37.984Z,38.2
2018-03-21T09:18:39.649Z,38.0
2018-03-21T09:19:41.358Z,37.1
2018-03-21T09:20:43.087Z,36.0
2018-03-21T09:21:44.752Z,36.0
2018-03-21T09:22:46.426Z,37.2
2018-03-21T09:23:48.097Z,36.4
2018-03-21T09:24:49.770Z,36.1
2018-03-21T09:25:51.439Z,36.1
2018-03-21T09:26:53.115Z,36.1
2018-03-21T09:27:54.793Z,35.6
2018-03-21T09:28:56.448Z,36.2
2018-03-21T09:29:58.185Z,35.9
2018-03-21T09:30:59.840Z,35.6
2018-03-21T09:32:01.581Z,35.7
2018-03-21T09:33:03.186Z,35.0
2018-03-21T09:34:04.854Z,35.6
2018-03-21T09:35:06.529Z,36.5
2018-03-21T09:36:08.264Z,38.2
2018-03-21T09:37:09.928Z,37.3
2018-03-21T09:38:11.609Z,37.2
2018-03-21T09:39:13.315Z,35.7
2018-03-21T09:40:14.987Z,33.9
2018-03-21T09:41:16.694Z,33.7
2018-03-21T09:42:18.360Z,33.3
2018-03-21T09:43:20.054Z,33.2
2018-03-21T09:44:21.818Z,34.9
2018-03-21T09:45:23.504Z,34.1
2018-03-21T09:46:25.173Z,35.2
2018-03-21T09:47:26.842Z,35.9
2018-03-21T09:48:28.502Z,36.4
2018-03-21T09:49:30.172Z,36.9
2018-03-21T09:50:31.829Z,36.5
2018-03-21T09:51:33.538Z,36.4
2018-03-21T09:52:35.211Z,35.6
2018-03-21T09:53:36.873Z,35.9
2018-03-21T09:54:38.544Z,36.6
2018-03-21T09:55:40.213Z,35.6
2018-03-21T09:56:41.894Z,34.5
2018-03-21T09:57:43.559Z,33.8
2018-03-21T09:58:45.214Z,35.0
2018-03-21T09:59:46.883Z,34.0
2018-03-21T10:00:48.576Z,33.3
2018-03-21T10:01:50.236Z,32.6
2018-03-21T10:02:51.905Z,33.0
2018-03-21T10:03:54.417Z,34.7
2018-03-21T10:04:56.084Z,35.7
2018-03-21T10:05:57.761Z,36.8
2018-03-21T10:06:59.428Z,36.9
2018-03-21T10:08:01.128Z,37.1
2018-03-21T10:09:02.819Z,35.6
2018-03-21T10:10:04.506Z,34.5
2018-03-21T10:11:06.165Z,33.0
2018-03-21T10:12:07.833Z,33.3
2018-03-21T10:13:09.659Z,32.9
2018-03-21T10:14:11.324Z,32.6
2018-03-21T10:15:12.986Z,33.7
2018-03-21T10:16:14.657Z,33.1
2018-03-21T10:17:16.509Z,33.2
2018-03-21T10:18:18.217Z,33.0
2018-03-21T10:19:19.878Z,32.6
2018-03-21T10:20:21.550Z,31.7
2018-03-21T10:21:23.214Z,31.8
2018-03-21T10:22:24.903Z,32.3
2018-03-21T10:23:26.574Z,31.8
2018-03-21T10:24:28.242Z,31.4
2018-03-21T10:25:29.906Z,30.7
2018-03-21T10:26:31.571Z,30.7
2018-03-21T10:27:33.253Z,30.5
2018-03-21T10:28:34.914Z,31.0
2018-03-21T10:29:36.587Z,31.1
2018-03-21T10:30:38.254Z,31.2
2018-03-21T10:31:39.916Z,31.2
2018-03-21T10:32:41.587Z,29.3
2018-03-21T10:33:43.259Z,28.4
2018-03-21T10:34:44.926Z,27.3
2018-03-21T10:35:46.604Z,27.8
2018-03-21T10:36:48.271Z,30.4
2018-03-21T10:37:49.938Z,31.2
2018-03-21T10:38:51.607Z,31.5
2018-03-21T10:39:53.281Z,30.9
2018-03-21T10:40:54.935Z,30.8
2018-03-21T10:41:56.604Z,31.5
2018-03-21T10:42:58.303Z,32.2
2018-03-21T10:43:59.961Z,32.9
2018-03-21T10:45:01.632Z,33.5
2018-03-21T10:46:03.295Z,34.1
2018-03-21T10:47:04.967Z,34.0
2018-03-21T10:48:06.641Z,34.7
2018-03-21T10:49:08.314Z,35.2
2018-03-21T10:50:09.982Z,35.5
2018-03-21T10:51:11.657Z,34.9
2018-03-21T10:52:13.335Z,34.4
2018-03-21T10:53:14.990Z,34.4
2018-03-21T10:54:16.655Z,34.0
2018-03-21T10:55:18.317Z,34.4
2018-03-21T11:01:36.611Z,36.1
2018-03-21T11:02:38.270Z,34.9
2018-03-21T11:03:39.933Z,33.8
2018-03-21T11:04:41.600Z,33.2
2018-03-21T11:05:43.270Z,33.2
2018-03-21T11:06:44.934Z,33.2
2018-03-21T11:07:46.590Z,31.7
2018-03-21T11:08:48.262Z,30.4
2018-03-21T11:09:49.949Z,29.5
2018-03-21T11:10:51.604Z,28.9
2018-03-21T11:11:53.305Z,29.4
2018-03-21T11:12:54.939Z,29.5
2018-03-21T11:13:56.613Z,30.6
2018-03-21T11:14:58.281Z,30.6
2018-03-21T11:15:59.942Z,30.4
2018-03-21T11:17:01.620Z,31.2
2018-03-21T11:18:03.285Z,32.0
2018-03-21T11:19:04.958Z,30.9
2018-03-21T11:20:06.630Z,31.4
2018-03-21T11:21:08.316Z,30.5
2018-03-21T11:22:10.052Z,29.3
2018-03-21T11:23:11.714Z,29.0
2018-03-21T11:24:13.671Z,29.2
2018-03-21T11:25:15.629Z,31.0
2018-03-21T11:26:18.038Z,32.5
2018-03-21T11:27:19.714Z,33.8
2018-03-21T11:28:21.542Z,33.9
2018-03-21T11:29:23.350Z,34.8
2018-03-21T11:30:25.025Z,34.1
2018-03-21T11:31:26.689Z,32.6
2018-03-21T11:32:28.357Z,31.6
2018-03-21T11:33:30.019Z,31.0
2018-03-21T11:34:31.702Z,30.9
2018-03-21T11:35:33.363Z,30.7
2018-03-21T11:36:35.034Z,31.3
2018-03-21T11:37:36.713Z,31.3
2018-03-21T11:38:38.380Z,30.5
2018-03-21T11:39:40.037Z,30.5
2018-03-21T11:40:41.714Z,29.0
2018-03-21T11:41:43.379Z,28.5
2018-03-21T11:42:45.050Z,28.0
2018-03-21T11:43:46.710Z,27.6
2018-03-21T11:44:48.391Z,28.3
2018-03-21T11:45:50.061Z,28.4
2018-03-21T11:46:51.738Z,28.7
2018-03-21T11:47:53.409Z,30.0
2018-03-21T11:48:55.085Z,30.4
2018-03-21T11:49:56.750Z,30.7
2018-03-21T11:50:58.420Z,30.3
2018-03-21T11:52:00.103Z,29.5
2018-03-21T11:53:01.888Z,30.5
2018-03-21T11:54:03.536Z,31.4
2018-03-21T11:55:05.214Z,33.2
2018-03-21T11:56:06.887Z,33.5
2018-03-21T11:57:08.575Z,33.5
2018-03-21T11:58:10.248Z,34.3
2018-03-21T11:59:11.952Z,34.0
2018-03-21T12:00:13.625Z,33.9
2018-03-21T12:01:15.296Z,34.1
2018-03-21T12:02:16.955Z,34.0
2018-03-21T12:03:18.618Z,35.0
2018-03-21T12:04:20.286Z,34.8
2018-03-21T12:05:21.960Z,34.1
2018-03-21T12:06:23.633Z,33.8
2018-03-21T12:07:25.303Z,33.1
2018-03-21T12:08:26.981Z,32.9
2018-03-21T12:09:28.651Z,33.7
2018-03-21T12:10:30.318Z,33.9
2018-03-21T12:11:31.989Z,34.0
2018-03-21T12:12:33.660Z,34.4
2018-03-21T12:13:35.333Z,36.6
2018-03-21T12:14:37.062Z,35.9
2018-03-21T12:15:38.676Z,34.3
2018-03-21T12:16:40.425Z,33.9
2018-03-21T12:17:42.103Z,33.2
2018-03-21T12:18:43.767Z,32.1
2018-03-21T12:19:45.437Z,31.1
2018-03-21T12:20:47.117Z,30.7
2018-03-21T12:21:48.862Z,30.7
2018-03-21T12:22:50.536Z,31.3
2018-03-21T12:23:52.209Z,30.9
2018-03-21T12:24:53.948Z,30.4
2018-03-21T12:25:55.532Z,30.5
2018-03-21T12:26:57.206Z,30.6
2018-03-21T12:27:58.879Z,30.6
2018-03-21T12:29:00.549Z,30.4
2018-03-21T12:30:02.225Z,30.2
2018-03-21T12:31:03.898Z,29.5
2018-03-21T12:32:05.564Z,29.5
2018-03-21T12:33:07.240Z,30.2
2018-03-21T12:34:08.909Z,30.0
2018-03-21T12:35:10.579Z,29.7
2018-03-21T12:36:12.262Z,30.4
2018-03-21T12:37:13.918Z,31.1
2018-03-21T12:38:15.597Z,31.4
2018-03-21T12:39:17.249Z,29.6
2018-03-21T12:40:18.925Z,28.9
2018-03-21T12:41:20.599Z,29.4
2018-03-21T12:42:22.266Z,31.0
2018-03-21T12:43:23.944Z,31.6
2018-03-21T12:44:25.710Z,31.7
2018-03-21T12:45:27.450Z,32.4
2018-03-21T12:46:29.140Z,31.0
2018-03-21T12:47:30.804Z,31.0
2018-03-21T12:48:32.468Z,32.1
2018-03-21T12:49:34.148Z,31.9
2018-03-21T12:50:35.832Z,31.1
2018-03-21T12:51:37.501Z,29.1
2018-03-21T12:52:39.178Z,29.3
2018-03-21T12:53:40.838Z,28.5
2018-03-21T12:54:42.506Z,28.9
2018-03-21T12:55:44.197Z,29.3
2018-03-21T12:56:45.851Z,27.6
2018-03-21T12:57:47.543Z,26.2
2018-03-21T12:58:49.208Z,26.2
2018-03-21T12:59:50.879Z,29.4
2018-03-21T13:00:52.551Z,31.5
2018-03-21T13:01:54.223Z,32.9
2018-03-21T13:02:55.899Z,32.5
2018-03-21T13:03:57.571Z,32.2
2018-03-21T13:04:59.236Z,31.7
2018-03-21T13:06:00.907Z,31.1
2018-03-21T13:07:02.584Z,31.7
2018-03-21T13:08:04.255Z,31.5
2018-03-21T13:09:05.916Z,31.3
2018-03-21T13:10:07.590Z,30.3
2018-03-21T13:11:09.264Z,29.2
2018-03-21T13:12:10.917Z,29.1
2018-03-21T13:13:12.599Z,29.6
2018-03-21T13:14:14.260Z,30.6
2018-03-21T13:15:15.938Z,31.1
2018-03-21T13:16:17.649Z,33.8
2018-03-21T13:17:19.278Z,34.5
2018-03-21T13:18:20.941Z,33.6
2018-03-21T13:19:22.613Z,31.5
2018-03-21T13:20:24.271Z,31.0
2018-03-21T13:21:25.941Z,29.6
2018-03-21T13:22:27.611Z,29.1
2018-03-21T13:23:29.279Z,28.4
2018-03-21T13:24:30.938Z,28.0
2018-03-21T13:25:32.611Z,27.4
2018-03-21T13:26:34.287Z,26.9
2018-03-21T13:27:35.954Z,26.8
2018-03-21T13:28:37.614Z,28.3
2018-03-21T13:29:39.334Z,27.6
2018-03-21T13:30:40.996Z,27.2
2018-03-21T13:31:42.669Z,28.0
2018-03-21T13:32:44.343Z,26.3
2018-03-21T13:33:46.002Z,24.8
2018-03-21T13:34:47.672Z,24.2
2018-03-21T13:35:49.351Z,24.5
2018-03-21T13:36:51.020Z,24.3
2018-03-21T13:37:52.687Z,24.0
2018-03-21T13:38:54.367Z,24.3
2018-03-21T13:39:56.049Z,25.6
2018-03-21T13:40:57.719Z,25.2
2018-03-21T13:41:59.397Z,25.5
2018-03-21T13:43:01.066Z,25.6
2018-03-21T13:44:02.741Z,25.6
2018-03-21T13:45:04.509Z,26.4
2018-03-21T13:46:06.171Z,27.6
2018-03-21T13:47:07.841Z,27.7
2018-03-21T13:48:09.499Z,28.0
2018-03-21T13:49:11.160Z,27.4
2018-03-21T13:50:12.827Z,28.9
2018-03-21T13:51:14.499Z,29.2
2018-03-21T13:52:16.165Z,29.0
2018-03-21T13:53:17.934Z,29.0
2018-03-21T13:54:19.583Z,27.8
2018-03-21T13:55:21.265Z,27.4
2018-03-21T13:56:22.923Z,26.7
2018-03-21T13:57:24.592Z,27.1
2018-03-21T13:58:26.263Z,27.3
2018-03-21T13:59:27.925Z,28.3